Time;durP1;ratioP1;P1;durP2;ratioP2;P2;SDS_P1;SDS_P2;PMS_P1;PMS_P2;Temp;Humidity;BMP_temperature;BMP_pressure;BME280_temperature;BME280_humidity;BME280_pressure;Samples;Min_cycle;Max_cycle;Signal;HPM_P1;HPM_P2
2023/05/22 00:00:43;;;;;;;1999.90;999.90;;;16.70;99.90;;;;;;5071834;28;20020;-73
2023/05/22 00:03:09;;;;;;;1999.90;999.90;;;16.70;99.90;;;;;;5052901;28;20036;-79
2023/05/22 00:05:37;;;;;;;1999.90;999.90;;;16.70;99.90;;;;;;5052653;28;20017;-79
2023/05/22 00:08:10;;;;;;;1999.90;999.90;;;16.70;99.90;;;;;;5055631;28;20049;-73
2023/05/22 00:10:37;;;;;;;1999.90;999.90;;;16.80;99.90;;;;;;5072754;28;20103;-73
2023/05/22 00:13:03;;;;;;;1999.90;999.90;;;16.80;99.90;;;;;;5071992;28;20032;-73
2023/05/22 00:15:29;;;;;;;1999.90;999.90;;;16.80;99.90;;;;;;5072841;28;20020;-73
2023/05/22 00:17:54;;;;;;;1999.90;999.90;;;16.80;99.90;;;;;;5072336;28;20052;-73
2023/05/22 00:20:20;;;;;;;1999.90;999.90;;;16.70;99.90;;;;;;5073312;28;20115;-79
2023/05/22 00:22:47;;;;;;;1999.90;999.90;;;16.70;99.90;;;;;;5073032;28;20036;-79
2023/05/22 00:25:16;;;;;;;1999.90;999.90;;;16.70;99.90;;;;;;5072774;28;20086;-73
2023/05/22 00:27:42;;;;;;;1999.90;999.90;;;16.70;99.90;;;;;;5072854;28;20460;-73
2023/05/22 00:30:08;;;;;;;1999.90;999.90;;;16.70;99.90;;;;;;5071892;28;20091;-73
2023/05/22 00:32:34;;;;;;;1999.90;999.90;;;16.70;99.90;;;;;;5073192;28;20112;-79
2023/05/22 00:35:00;;;;;;;1999.90;999.90;;;16.70;99.90;;;;;;5072932;28;20103;-73
2023/05/22 00:37:26;;;;;;;1999.90;999.90;;;16.70;99.90;;;;;;5072644;28;20029;-73
2023/05/22 00:39:51;;;;;;;1999.90;999.90;;;16.60;99.90;;;;;;5072435;28;20048;-73
2023/05/22 00:42:17;;;;;;;1999.90;999.90;;;16.60;99.90;;;;;;5072654;28;20025;-79
2023/05/22 00:44:43;;;;;;;1999.90;999.90;;;16.60;99.90;;;;;;5072991;28;20031;-79
2023/05/22 00:47:08;;;;;;;1999.90;999.90;;;16.60;99.90;;;;;;5072502;28;20028;-79
2023/05/22 00:49:34;;;;;;;1999.90;999.90;;;16.60;99.90;;;;;;5072884;28;20031;-73
2023/05/22 00:52:01;;;;;;;1999.90;999.90;;;16.70;99.90;;;;;;5072308;28;20064;-73
2023/05/22 00:54:27;;;;;;;1999.90;999.90;;;16.70;99.90;;;;;;5072445;28;20480;-73
2023/05/22 00:56:53;;;;;;;1999.90;999.90;;;16.60;99.90;;;;;;5072551;28;20031;-79
2023/05/22 00:59:19;;;;;;;1999.90;999.90;;;16.70;99.90;;;;;;5072735;28;20016;-79
2023/05/22 01:01:45;;;;;;;1999.90;999.90;;;16.70;99.90;;;;;;5063899;28;20017;-73
2023/05/22 01:04:11;;;;;;;1999.90;999.90;;;16.70;99.90;;;;;;5052270;28;20617;-73
2023/05/22 01:06:38;;;;;;;1999.90;999.90;;;16.80;99.90;;;;;;5052285;28;20021;-79
2023/05/22 01:09:04;;;;;;;1999.90;999.90;;;16.80;99.90;;;;;;5062622;28;20046;-78
2023/05/22 01:11:35;;;;;;;1999.90;999.90;;;16.90;99.90;;;;;;5071953;28;20092;-73
2023/05/22 01:14:10;;;;;;;1999.90;999.90;;;16.80;99.90;;;;;;5072387;28;20108;-73
2023/05/22 01:16:45;;;;;;;1999.90;999.90;;;16.80;99.90;;;;;;5071559;28;20368;-73
2023/05/22 01:19:22;;;;;;;1999.90;999.90;;;16.80;99.90;;;;;;5076117;28;20024;-79
2023/05/22 01:22:10;;;;;;;1999.90;999.90;;;16.80;99.90;;;;;;5076277;28;20032;-73
2023/05/22 01:24:50;;;;;;;1999.90;999.90;;;16.80;99.90;;;;;;5075710;28;20021;-73
2023/05/22 01:27:50;;;;;;;1999.90;999.90;;;16.80;99.90;;;;;;5075082;28;20475;-79
2023/05/22 01:30:34;;;;;;;1999.90;999.90;;;16.80;99.90;;;;;;5075345;28;20475;-73
2023/05/22 01:33:02;;;;;;;1999.90;999.90;;;16.80;99.90;;;;;;5075822;28;20036;-78
2023/05/22 01:35:29;;;;;;;1999.90;999.90;;;16.80;99.90;;;;;;5076182;28;20028;-79
2023/05/22 01:37:56;;;;;;;1999.90;999.90;;;16.80;99.90;;;;;;5075629;28;20394;-79
2023/05/22 01:40:22;;;;;;;1999.90;999.90;;;16.80;99.90;;;;;;5075659;28;20055;-73
2023/05/22 01:42:48;;;;;;;1999.90;999.90;;;16.80;99.90;;;;;;5075835;28;20050;-73
2023/05/22 01:45:14;;;;;;;1999.90;999.90;;;16.80;99.90;;;;;;5075455;28;20048;-79
2023/05/22 01:47:39;;;;;;;1999.90;999.90;;;16.80;99.90;;;;;;5075618;28;20125;-79
2023/05/22 01:50:05;;;;;;;1999.90;999.90;;;16.80;99.90;;;;;;5075282;28;20513;-79
2023/05/22 01:53:00;;;;;;;1999.90;999.90;;;16.70;99.90;;;;;;5074247;28;20555;-73
2023/05/22 01:55:39;;;;;;;1999.90;999.90;;;16.70;99.90;;;;;;5075732;28;20502;-73
2023/05/22 01:58:20;;;;;;;1999.90;999.90;;;16.60;99.90;;;;;;5075509;28;20498;-79
2023/05/22 02:00:46;;;;;;;1999.90;999.90;;;16.60;99.90;;;;;;5075200;28;20165;-79
2023/05/22 02:03:21;;;;;;;1999.90;999.90;;;16.50;99.90;;;;;;5074995;28;20025;-73
2023/05/22 02:05:52;;;;;;;1999.90;999.90;;;16.40;99.90;;;;;;5075486;28;20032;-79
2023/05/22 02:08:19;;;;;;;1999.90;999.90;;;16.40;99.90;;;;;;5074877;28;20083;-79
2023/05/22 02:10:46;;;;;;;1999.90;999.90;;;16.40;99.90;;;;;;5075288;28;20498;-73
2023/05/22 02:13:12;;;;;;;1999.90;999.90;;;16.30;99.90;;;;;;5074956;28;20021;-79
2023/05/22 02:15:38;;;;;;;1999.90;999.90;;;16.30;99.90;;;;;;5074496;28;20035;-79
2023/05/22 02:18:11;;;;;;;1999.90;999.90;;;16.20;99.90;;;;;;5075027;28;20012;-78
2023/05/22 02:20:37;;;;;;;1999.90;999.90;;;16.20;99.90;;;;;;5074920;28;20097;-73
2023/05/22 02:23:02;;;;;;;1999.90;999.90;;;16.10;99.90;;;;;;5075173;28;20090;-73
2023/05/22 02:25:28;;;;;;;1999.90;999.90;;;16.10;99.90;;;;;;5074784;28;20036;-79
2023/05/22 02:27:53;;;;;;;1999.90;999.90;;;16.00;99.90;;;;;;5074210;28;20025;-78
2023/05/22 02:30:19;;;;;;;1999.90;999.90;;;16.00;99.90;;;;;;5074062;28;20037;-73
2023/05/22 02:32:45;;;;;;;1999.90;999.90;;;16.00;99.90;;;;;;5074648;28;20103;-79
2023/05/22 02:35:11;;;;;;;1999.90;999.90;;;16.00;99.90;;;;;;5074641;28;20032;-73
2023/05/22 02:37:36;;;;;;;1999.90;999.90;;;15.90;99.90;;;;;;5074321;28;20016;-78
2023/05/22 02:40:06;;;;;;;1999.90;999.90;;;15.90;99.90;;;;;;5074368;28;20032;-79
2023/05/22 02:42:32;;;;;;;1999.90;999.90;;;15.80;99.90;;;;;;5074606;28;20031;-79
2023/05/22 02:44:57;;;;;;;1999.90;999.90;;;15.70;99.90;;;;;;5074882;28;20048;-79
2023/05/22 02:47:23;;;;;;;1999.90;999.90;;;15.60;99.90;;;;;;5074462;28;20063;-73
2023/05/22 02:49:48;;;;;;;1999.90;999.90;;;15.60;99.90;;;;;;5074403;28;20541;-73
2023/05/22 02:52:14;;;;;;;1999.90;999.90;;;15.60;99.90;;;;;;5074334;28;20119;-79
2023/05/22 02:54:40;;;;;;;1999.90;999.90;;;15.50;99.90;;;;;;5073666;28;20029;-79
2023/05/22 02:57:06;;;;;;;1999.90;999.90;;;15.50;99.90;;;;;;5074438;28;20383;-73
2023/05/22 02:59:32;;;;;;;1999.90;999.90;;;15.40;99.90;;;;;;5074148;28;20023;-73
2023/05/22 03:01:57;;;;;;;1999.90;999.90;;;15.40;99.90;;;;;;5064016;28;20086;-79
2023/05/22 03:04:23;;;;;;;1999.90;999.90;;;15.40;99.90;;;;;;5054096;28;20029;-73
2023/05/22 03:06:49;;;;;;;1999.90;999.90;;;15.30;99.90;;;;;;5053884;28;20049;-79
2023/05/22 03:09:15;;;;;;;1999.90;999.90;;;15.30;99.90;;;;;;5066329;28;20043;-73
2023/05/22 03:11:41;;;;;;;1999.90;999.90;;;15.30;99.90;;;;;;5073699;28;20047;-73
2023/05/22 03:14:06;;;;;;;1999.90;999.90;;;15.30;99.90;;;;;;5073866;28;20471;-73
2023/05/22 03:16:34;;;;;;;1999.90;999.90;;;15.20;99.90;;;;;;5073712;28;20016;-73
2023/05/22 03:19:10;;;;;;;1999.90;999.90;;;15.20;99.90;;;;;;5074075;28;20095;-73
2023/05/22 03:21:35;;;;;;;1999.90;999.90;;;15.20;99.90;;;;;;5074206;28;20020;-78
2023/05/22 03:24:02;;;;;;;1999.90;999.90;;;15.20;99.90;;;;;;5055754;28;20532;-73
2023/05/22 03:26:27;;;;;;;1999.90;999.90;;;15.20;99.90;;;;;;5073716;28;20048;-73
2023/05/22 03:28:54;;;;;;;1999.90;999.90;;;15.20;99.90;;;;;;5073470;28;20037;-73
2023/05/22 03:31:20;;;;;;;1999.90;999.90;;;15.20;99.90;;;;;;5072916;28;20523;-73
2023/05/22 03:33:45;;;;;;;1999.90;999.90;;;15.20;99.90;;;;;;5073853;28;20074;-79
2023/05/22 03:36:11;;;;;;;1999.90;999.90;;;15.20;99.90;;;;;;5073961;28;20017;-79
2023/05/22 03:38:37;;;;;;;1999.90;999.90;;;15.20;99.90;;;;;;5073471;28;20025;-73
2023/05/22 03:41:02;;;;;;;1999.90;999.90;;;15.20;99.90;;;;;;5054794;28;20025;-79
2023/05/22 03:43:28;;;;;;;1999.90;999.90;;;15.20;99.90;;;;;;5073799;28;20108;-78
2023/05/22 03:45:53;;;;;;;1999.90;999.90;;;15.20;99.90;;;;;;5073586;28;20364;-79
2023/05/22 03:48:19;;;;;;;1999.90;999.90;;;15.20;99.90;;;;;;5073552;28;20036;-73
2023/05/22 03:50:45;;;;;;;1999.90;999.90;;;15.20;99.90;;;;;;5073892;28;20020;-73
2023/05/22 03:53:11;;;;;;;1999.90;999.90;;;15.20;99.90;;;;;;5073447;28;20372;-73
2023/05/22 03:55:36;;;;;;;1999.90;999.90;;;15.20;99.90;;;;;;5073247;28;20111;-78
2023/05/22 03:58:02;;;;;;;1999.90;999.90;;;15.10;99.90;;;;;;5073658;28;20017;-79
2023/05/22 04:00:28;;;;;;;1999.90;999.90;;;15.10;99.90;;;;;;5073214;28;20079;-79
2023/05/22 04:02:57;;;;;;;1999.90;999.90;;;15.10;99.90;;;;;;5055480;28;20025;-79
2023/05/22 04:05:23;;;;;;;1999.90;999.90;;;15.10;99.90;;;;;;5053046;28;20112;-79
2023/05/22 04:07:49;;;;;;;1999.90;999.90;;;15.10;99.90;;;;;;5053225;28;20080;-73
2023/05/22 04:10:14;;;;;;;1999.90;999.90;;;15.00;99.90;;;;;;5073039;28;20029;-73
2023/05/22 04:12:40;;;;;;;1999.90;999.90;;;15.00;99.90;;;;;;5072818;28;20071;-79
2023/05/22 04:15:07;;;;;;;1999.90;999.90;;;14.90;99.90;;;;;;5073125;28;20460;-79
2023/05/22 04:17:38;;;;;;;1999.90;999.90;;;14.90;99.90;;;;;;5072537;28;20376;-72
2023/05/22 04:20:05;;;;;;;1999.90;999.90;;;14.90;99.90;;;;;;5072926;28;20040;-73
2023/05/22 04:22:30;;;;;;;1999.90;999.90;;;14.90;99.90;;;;;;5072428;28;20503;-73
2023/05/22 04:24:56;;;;;;;1999.90;999.90;;;14.90;99.90;;;;;;5054648;28;20024;-78
2023/05/22 04:27:22;;;;;;;1999.90;999.90;;;14.90;99.90;;;;;;5073235;28;20024;-79
2023/05/22 04:29:49;;;;;;;1999.90;999.90;;;14.90;99.90;;;;;;5072947;28;20111;-73
2023/05/22 04:32:17;;;;;;;1999.90;999.90;;;14.90;99.90;;;;;;5071716;28;20020;-73
2023/05/22 04:34:45;;;;;;;1999.90;999.90;;;14.90;99.90;;;;;;5073100;28;20040;-79
2023/05/22 04:37:13;;;;;;;1999.90;999.90;;;14.90;99.90;;;;;;5072752;28;20020;-73
2023/05/22 04:39:39;;;;;;;1999.90;999.90;;;14.90;99.90;;;;;;5072924;28;20538;-78
2023/05/22 04:42:05;;;;;;;1999.90;999.90;;;15.00;99.90;;;;;;5072938;28;20103;-73
2023/05/22 04:44:33;;;;;;;1999.90;999.90;;;15.00;99.90;;;;;;5072836;28;20020;-73
2023/05/22 04:47:03;;;;;;;1999.90;999.90;;;15.00;99.90;;;;;;5072632;28;20021;-73
2023/05/22 04:49:28;;;;;;;1999.90;999.90;;;15.00;99.90;;;;;;5072769;28;20049;-73
2023/05/22 04:51:56;;;;;;;1999.90;999.90;;;15.00;99.90;;;;;;5074343;28;20060;-78
2023/05/22 04:54:23;;;;;;;1999.90;999.90;;;15.00;99.90;;;;;;5076899;28;20017;-73
2023/05/22 04:56:50;;;;;;;1999.90;999.90;;;15.00;99.90;;;;;;5076670;28;20055;-73
2023/05/22 04:59:16;;;;;;;1999.90;999.90;;;15.00;99.90;;;;;;5076809;28;20454;-73
2023/05/22 05:01:46;;;;;;;1999.90;999.90;;;15.00;99.90;;;;;;5068510;28;20025;-72
2023/05/22 05:04:12;;;;;;;1999.90;999.90;;;14.90;99.90;;;;;;5056469;28;20123;-78
2023/05/22 05:06:38;;;;;;;1999.90;999.90;;;14.90;99.90;;;;;;5056486;28;20512;-79
2023/05/22 05:09:04;;;;;;;1999.90;999.90;;;15.00;99.90;;;;;;5067002;28;20075;-78
2023/05/22 05:11:29;;;;;;;1999.90;999.90;;;15.00;99.90;;;;;;5076419;28;20028;-73
2023/05/22 05:13:55;;;;;;;1999.90;999.90;;;15.00;99.90;;;;;;5075993;28;20031;-79
2023/05/22 05:16:22;;;;;;;1999.90;999.90;;;14.90;99.90;;;;;;5075775;28;20527;-79
2023/05/22 05:18:47;;;;;;;1999.90;999.90;;;15.00;99.90;;;;;;5076565;28;20345;-79
2023/05/22 05:21:13;;;;;;;1999.90;999.90;;;15.00;99.90;;;;;;5076225;28;20031;-78
2023/05/22 05:23:38;;;;;;;1999.90;999.90;;;15.00;99.90;;;;;;5076307;28;20025;-73
2023/05/22 05:26:04;;;;;;;1999.90;999.90;;;15.10;99.90;;;;;;5075906;28;20039;-78
2023/05/22 05:28:30;;;;;;;1999.90;999.90;;;15.10;99.90;;;;;;5075517;28;20063;-78
2023/05/22 05:30:56;;;;;;;1999.90;999.90;;;15.00;99.90;;;;;;5057589;28;20044;-73
2023/05/22 05:33:22;;;;;;;1999.90;999.90;;;15.00;99.90;;;;;;5074484;28;20027;-78
2023/05/22 05:35:49;;;;;;;1999.90;999.90;;;15.10;99.90;;;;;;5075369;28;20399;-73
2023/05/22 05:38:16;;;;;;;1999.90;999.90;;;15.00;99.90;;;;;;5075594;28;20021;-73
2023/05/22 05:40:43;;;;;;;1999.90;999.90;;;15.00;99.90;;;;;;5075530;28;20502;-79
2023/05/22 05:43:08;;;;;;;1999.90;999.90;;;15.00;99.90;;;;;;5070322;28;20029;-77
2023/05/22 05:45:34;;;;;;;1999.90;999.90;;;15.00;99.90;;;;;;5073052;28;20036;-78
2023/05/22 05:48:00;;;;;;;1999.90;999.90;;;15.00;99.90;;;;;;5073621;28;20040;-73
2023/05/22 05:50:25;;;;;;;1999.90;999.90;;;15.10;99.90;;;;;;5072849;28;20056;-73
2023/05/22 05:52:51;;;;;;;1999.90;999.90;;;15.10;99.90;;;;;;5059429;28;20036;-78
2023/05/22 05:55:17;;;;;;;1999.90;999.90;;;15.10;99.90;;;;;;5053762;28;20480;-78
2023/05/22 05:57:42;;;;;;;1999.90;999.90;;;15.10;99.90;;;;;;5067147;28;20118;-78
2023/05/22 06:00:12;;;;;;;1999.90;999.90;;;15.10;99.90;;;;;;5075115;28;20483;-73
2023/05/22 06:02:37;;;;;;;1999.90;999.90;;;15.10;99.90;;;;;;5073630;28;20037;-73
2023/05/22 06:05:04;;;;;;;1999.90;999.90;;;15.20;99.90;;;;;;5074383;28;20032;-73
2023/05/22 06:07:30;;;;;;;1999.90;999.90;;;15.20;99.90;;;;;;5073177;28;20120;-78
2023/05/22 06:09:57;;;;;;;1999.90;999.90;;;15.20;99.90;;;;;;5072047;28;20364;-73
2023/05/22 06:12:23;;;;;;;1999.90;999.90;;;15.30;99.90;;;;;;5069362;28;20036;-73
2023/05/22 06:14:48;;;;;;;1999.90;999.90;;;15.30;99.90;;;;;;5073324;28;20021;-79
2023/05/22 06:17:15;;;;;;;1999.90;999.90;;;15.30;99.90;;;;;;5069889;28;20099;-73
2023/05/22 06:19:41;;;;;;;1999.90;999.90;;;15.30;99.90;;;;;;5081398;28;20445;-77
2023/05/22 06:22:06;;;;;;;1999.90;999.90;;;15.40;99.90;;;;;;5073024;28;20067;-78
2023/05/22 06:24:32;;;;;;;1999.90;999.90;;;15.50;99.90;;;;;;5073042;28;20095;-73
2023/05/22 06:26:58;;;;;;;1999.90;999.90;;;15.50;99.90;;;;;;5052139;28;20025;-74
2023/05/22 06:29:24;;;;;;;1999.90;999.90;;;15.60;99.90;;;;;;5072186;28;20044;-73
2023/05/22 06:31:50;;;;;;;1999.90;999.90;;;15.50;99.90;;;;;;5072559;28;20067;-73
2023/05/22 06:34:15;;;;;;;1999.90;999.90;;;15.50;99.90;;;;;;5071913;28;20099;-78
2023/05/22 06:36:41;;;;;;;1999.90;999.90;;;15.50;99.90;;;;;;5072799;28;20036;-78
2023/05/22 06:39:07;;;;;;;1999.90;999.90;;;15.50;99.90;;;;;;5072807;28;20472;-78
2023/05/22 06:41:34;;;;;;;1999.90;999.90;;;15.50;99.90;;;;;;5072234;28;20040;-74
2023/05/22 06:44:01;;;;;;;1999.90;999.90;;;15.40;99.90;;;;;;5071139;28;20099;-74
2023/05/22 06:46:26;;;;;;;1999.90;999.90;;;15.40;99.90;;;;;;5070513;28;20032;-78
2023/05/22 06:48:53;;;;;;;1999.90;999.90;;;15.30;99.90;;;;;;5071190;28;20058;-78
2023/05/22 06:51:19;;;;;;;1999.90;999.90;;;15.20;99.90;;;;;;5070422;28;20024;-79
2023/05/22 06:53:45;;;;;;;1999.90;999.90;;;15.20;99.90;;;;;;5069019;28;20020;-74
2023/05/22 06:56:11;;;;;;;1999.90;999.90;;;15.10;99.90;;;;;;5068166;28;20159;-74
2023/05/22 06:58:37;;;;;;;1999.90;999.90;;;15.10;99.90;;;;;;5054679;28;20384;-79
2023/05/22 07:01:03;;;;;;;1999.90;999.90;;;15.00;99.90;;;;;;5070447;28;20032;-80
2023/05/22 07:03:29;;;;;;;1999.90;999.90;;;15.00;99.90;;;;;;5089637;28;20035;-81
2023/05/22 07:05:56;;;;;;;1999.90;999.90;;;14.90;99.90;;;;;;5051229;28;20153;-74
2023/05/22 07:08:22;;;;;;;1999.90;999.90;;;14.80;99.90;;;;;;5053073;28;20527;-74
2023/05/22 07:10:47;;;;;;;1999.90;999.90;;;14.80;99.90;;;;;;5068858;28;20060;-79
2023/05/22 07:13:13;;;;;;;1999.90;999.90;;;14.80;99.90;;;;;;5060020;28;20043;-79
2023/05/22 07:15:39;;;;;;;1999.90;999.90;;;14.70;99.90;;;;;;5066256;28;20040;-80
2023/05/22 07:18:05;;;;;;;1999.90;999.90;;;14.80;99.90;;;;;;5071368;28;20056;-74
2023/05/22 07:20:30;;;;;;;1999.90;999.90;;;14.80;99.90;;;;;;5070735;28;20032;-79
2023/05/22 07:22:57;;;;;;;1999.90;999.90;;;14.80;99.90;;;;;;5070952;28;20025;-79
2023/05/22 07:25:22;;;;;;;1999.90;999.90;;;14.90;99.90;;;;;;5075456;28;20372;-74
2023/05/22 07:27:48;;;;;;;1999.90;999.90;;;15.00;99.90;;;;;;5066950;28;20035;-80
2023/05/22 07:30:14;;;;;;;1999.90;999.90;;;15.00;99.90;;;;;;5071175;28;20028;-80
2023/05/22 07:32:39;;;;;;;1999.90;999.90;;;15.10;99.90;;;;;;5069318;28;20094;-74
2023/05/22 07:35:06;;;;;;;1999.90;999.90;;;15.10;99.90;;;;;;5069611;28;20024;-74
2023/05/22 07:37:31;;;;;;;1999.90;999.90;;;15.20;99.90;;;;;;5050560;28;20024;-80
2023/05/22 07:39:57;;;;;;;1999.90;999.90;;;15.30;99.90;;;;;;5073332;28;20028;-74
2023/05/22 07:42:24;;;;;;;1999.90;999.90;;;15.30;99.90;;;;;;5074109;28;20036;-80
2023/05/22 07:44:50;;;;;;;1999.90;999.90;;;15.40;99.90;;;;;;5053569;28;20434;-75
2023/05/22 07:47:16;;;;;;;1999.90;999.90;;;15.50;99.90;;;;;;5078234;28;20032;-74
2023/05/22 07:49:42;;;;;;;1999.90;999.90;;;15.70;99.90;;;;;;5070254;28;20059;-80
2023/05/22 07:52:07;;;;;;;1999.90;999.90;;;15.80;99.90;;;;;;5069853;28;20028;-80
2023/05/22 07:54:33;;;;;;;1999.90;999.90;;;15.90;99.90;;;;;;5067516;28;20033;-74
2023/05/22 07:57:02;;;;;;;1999.90;999.90;;;16.10;99.90;;;;;;5080540;28;20021;-78
2023/05/22 07:59:28;;;;;;;1999.90;999.90;;;16.30;99.90;;;;;;5070112;28;20029;-74
2023/05/22 08:01:53;;;;;;;1999.90;999.90;;;16.40;99.90;;;;;;5062161;28;20036;-81
2023/05/22 08:04:19;;;;;;;1999.90;999.90;;;16.50;99.90;;;;;;5069264;28;20039;-81
2023/05/22 08:06:44;;;;;;;1999.90;999.90;;;16.50;99.90;;;;;;5063543;28;20044;-74
2023/05/22 08:09:10;;;;;;;1999.90;999.90;;;16.30;99.90;;;;;;5068966;28;20606;-81
2023/05/22 08:11:38;;;;;;;1999.90;999.90;;;16.40;99.90;;;;;;5067959;28;20449;-75
2023/05/22 08:14:04;;;;;;;1999.90;999.90;;;16.30;99.90;;;;;;5069369;28;20032;-74
2023/05/22 08:16:30;;;;;;;1999.90;999.90;;;16.10;99.90;;;;;;5068484;28;20020;-81
2023/05/22 08:18:56;;;;;;;1999.90;999.90;;;15.90;99.90;;;;;;5068975;28;20021;-79
2023/05/22 08:21:22;;;;;;;1999.90;999.90;;;16.00;99.90;;;;;;5067797;28;20079;-81
2023/05/22 08:23:47;;;;;;;1999.90;999.90;;;15.80;99.90;;;;;;5064398;28;20021;-81
2023/05/22 08:26:14;;;;;;;1999.90;999.90;;;15.80;99.90;;;;;;5070601;28;20400;-74
2023/05/22 08:28:43;;;;;;;1999.90;999.90;;;15.80;99.90;;;;;;5069008;28;20064;-81
2023/05/22 08:31:10;;;;;;;1999.90;999.90;;;15.80;99.90;;;;;;5068940;28;20181;-80
2023/05/22 08:33:35;;;;;;;1999.90;999.90;;;15.90;99.90;;;;;;5050032;28;20558;-80
2023/05/22 08:36:01;;;;;;;1999.90;999.90;;;15.90;99.90;;;;;;5064339;28;20056;-74
2023/05/22 08:38:27;;;;;;;1999.90;999.90;;;15.90;99.90;;;;;;5068498;28;20039;-74
2023/05/22 08:40:56;;;;;;;1999.90;999.90;;;15.80;99.90;;;;;;5064708;28;20055;-74
2023/05/22 08:43:23;;;;;;;1999.90;999.90;;;15.90;99.90;;;;;;5069768;28;20046;-80
2023/05/22 08:45:54;;;;;;;1999.90;999.90;;;16.10;99.90;;;;;;5068675;28;20471;-81
2023/05/22 08:48:22;;;;;;;1999.90;999.90;;;16.30;99.90;;;;;;5068503;28;20104;-81
2023/05/22 08:50:56;;;;;;;1999.90;999.90;;;16.40;99.90;;;;;;5073024;28;20369;-75
2023/05/22 08:53:23;;;;;;;1999.90;999.90;;;16.50;99.90;;;;;;5062140;28;20033;-81
2023/05/22 08:55:50;;;;;;;1999.90;999.90;;;16.60;99.90;;;;;;5062955;28;20029;-75
2023/05/22 08:58:17;;;;;;;1999.90;999.90;;;16.70;99.90;;;;;;5066253;28;20475;-81
2023/05/22 09:00:43;;;;;;;1999.90;999.90;;;17.00;99.90;;;;;;5068460;28;20028;-81
2023/05/22 09:03:12;;;;;;;1999.90;999.90;;;17.20;99.90;;;;;;5061633;28;20037;-81
2023/05/22 09:05:39;;;;;;;1999.90;999.90;;;17.50;99.90;;;;;;5069098;28;20038;-75
2023/05/22 09:08:06;;;;;;;1999.90;999.90;;;17.60;99.90;;;;;;5068657;28;20123;-80
2023/05/22 09:10:33;;;;;;;1999.90;999.90;;;17.70;99.90;;;;;;5067772;28;20024;-80
2023/05/22 09:13:06;;;;;;;1999.90;999.90;;;17.90;99.90;;;;;;5062525;28;20514;-81
2023/05/22 09:15:33;;;;;;;1999.90;999.90;;;17.90;99.90;;;;;;5068313;28;20040;-81
2023/05/22 09:17:59;;;;;;;1999.90;999.90;;;18.30;99.90;;;;;;5051737;28;20445;-75
2023/05/22 09:20:25;;;;;;;1999.90;999.90;;;18.20;99.90;;;;;;5062122;28;20048;-80
2023/05/22 09:22:51;;;;;;;1999.90;999.90;;;18.10;99.90;;;;;;5065816;28;20507;-80
2023/05/22 09:25:18;;;;;;;1999.90;999.90;;;18.50;99.90;;;;;;5064699;28;20160;-75
2023/05/22 09:27:47;;;;;;;1999.90;999.90;;;18.40;99.90;;;;;;5074363;28;20031;-81
2023/05/22 09:30:17;;;;;;;1999.90;999.90;;;18.20;99.90;;;;;;5067276;28;20032;-75
2023/05/22 09:32:45;;;;;;;1999.90;999.90;;;18.10;99.90;;;;;;5065321;28;20541;-80
2023/05/22 09:35:12;;;;;;;1999.90;999.90;;;18.30;99.90;;;;;;5069166;28;20025;-80
2023/05/22 09:37:39;;;;;;;1999.90;999.90;;;18.30;99.90;;;;;;5066528;28;20383;-80
2023/05/22 09:40:10;;;;;;;1999.90;999.90;;;18.40;99.90;;;;;;5053230;28;20503;-75
2023/05/22 09:42:36;;;;;;;1999.90;999.90;;;18.60;99.90;;;;;;5062755;28;20395;-75
2023/05/22 09:45:06;;;;;;;1999.90;999.90;;;18.90;99.90;;;;;;5071771;28;20024;-75
2023/05/22 09:47:35;;;;;;;1999.90;999.90;;;19.20;99.90;;;;;;5071697;28;20029;-78
2023/05/22 09:50:06;;;;;;;1999.90;999.90;;;19.30;99.90;;;;;;5053821;28;20403;-79
2023/05/22 09:52:35;;;;;;;1999.90;999.90;;;19.30;99.90;;;;;;5071314;28;20032;-78
2023/05/22 09:55:04;;;;;;;1999.90;999.90;;;19.00;99.90;;;;;;5071538;28;20078;-75
2023/05/22 09:57:32;;;;;;;1999.90;999.90;;;18.80;99.90;;;;;;5051599;28;20039;-75
2023/05/22 09:59:59;;;;;;;1999.90;999.90;;;18.60;99.90;;;;;;5072526;28;20480;-78
2023/05/22 10:02:26;;;;;;;1999.90;999.90;;;18.70;99.90;;;;;;5085594;28;20736;-77
2023/05/22 10:04:53;;;;;;;1999.90;999.90;;;18.90;99.90;;;;;;5072112;28;20545;-77
2023/05/22 10:07:23;;;;;;;1999.90;999.90;;;19.20;99.90;;;;;;5071841;28;20051;-73
2023/05/22 10:10:10;;;;;;;1999.90;999.90;;;20.50;99.90;;;;;;5067991;28;20450;-78
2023/05/22 10:12:42;;;;;;;1999.90;999.90;;;21.90;99.90;;;;;;5067706;28;20037;-78
2023/05/22 10:15:10;;;;;;;1999.90;999.90;;;23.80;99.90;;;;;;5072562;28;20029;-77
2023/05/22 10:17:38;;;;;;;1999.90;999.90;;;25.10;99.90;;;;;;5071475;28;20833;-77
2023/05/22 10:20:07;;;;;;;1999.90;999.90;;;25.70;99.90;;;;;;5071492;28;20484;-74
2023/05/22 10:22:37;;;;;;;1999.90;999.90;;;26.90;99.90;;;;;;5070582;28;20040;-73
2023/05/22 10:25:03;;;;;;;1999.90;999.90;;;27.50;99.90;;;;;;5077122;28;20090;-77
2023/05/22 10:27:29;;;;;;;1999.90;999.90;;;27.50;99.90;;;;;;5070083;28;20510;-77
2023/05/22 10:30:11;;;;;;;1999.90;999.90;;;26.40;99.90;;;;;;5065425;28;20028;-74
2023/05/22 10:32:40;;;;;;;;;;;25.70;99.90;;;;;;5068276;28;20668;-74
2023/05/22 10:35:25;;;;;;;1999.90;999.90;;;26.70;99.90;;;;;;5062529;28;20023;-74
2023/05/22 10:38:29;;;;;;;1999.90;999.90;;;27.50;99.90;;;;;;5062401;28;20024;-74
2023/05/22 10:40:56;;;;;;;1999.90;999.90;;;27.10;99.90;;;;;;5067469;28;20031;-75
2023/05/22 10:43:21;;;;;;;1999.90;999.90;;;27.40;99.90;;;;;;5070438;28;20462;-80
2023/05/22 10:45:47;;;;;;;1999.90;999.90;;;27.30;99.90;;;;;;5065557;28;20025;-79
2023/05/22 10:48:13;;;;;;;1999.90;999.90;;;27.30;99.90;;;;;;5049637;28;20033;-74
2023/05/22 10:50:48;;;;;;;1999.90;999.90;;;27.50;99.90;;;;;;5062566;28;20036;-75
2023/05/22 10:53:30;;;;;;;1999.90;999.90;;;28.30;99.90;;;;;;5056724;28;20032;-80
2023/05/22 10:55:57;;;;;;;1999.90;999.90;;;28.30;99.90;;;;;;5061296;28;20029;-74
2023/05/22 10:58:31;;;;;;;1999.90;999.90;;;27.80;99.90;;;;;;5063120;28;20017;-80
2023/05/22 11:01:16;;;;;;;1999.90;999.90;;;27.20;99.90;;;;;;5041293;28;20032;-74
2023/05/22 11:03:57;;;;;;;1999.90;999.90;;;27.50;99.90;;;;;;5063256;28;20641;-80
2023/05/22 11:06:36;;;;;;;1999.90;999.90;;;26.80;99.90;;;;;;5068508;28;20032;-74
2023/05/22 11:09:22;;;;;;;1999.90;999.90;;;26.40;99.90;;;;;;5064666;28;20025;-79
2023/05/22 11:12:12;;;;;;;1999.90;999.90;;;25.60;99.90;;;;;;5064317;28;20380;-80
2023/05/22 11:14:38;;;;;;;1999.90;999.90;;;27.40;99.90;;;;;;5064285;28;20031;-74
2023/05/22 11:17:07;;;;;;;1999.90;999.90;;;27.10;99.90;;;;;;5064740;28;20037;-79
2023/05/22 11:19:33;;;;;;;1999.90;999.90;;;27.70;99.90;;;;;;5064052;28;20025;-74
2023/05/22 11:22:03;;;;;;;1999.90;999.90;;;28.10;99.90;;;;;;5063726;28;20054;-81
2023/05/22 11:24:33;;;;;;;1999.90;999.90;;;28.60;99.90;;;;;;5069797;28;20044;-80
2023/05/22 11:27:07;;;;;;;1999.90;999.90;;;29.30;99.90;;;;;;5059111;28;20031;-80
2023/05/22 11:29:34;;;;;;;1999.90;999.90;;;27.90;99.90;;;;;;5069639;28;20078;-80
2023/05/22 11:32:01;;;;;;;1999.90;999.90;;;27.50;99.90;;;;;;5067545;28;20032;-81
2023/05/22 11:34:26;;;;;;;1999.90;999.90;;;27.80;99.90;;;;;;5068776;28;21667;-80
2023/05/22 11:36:59;;;;;;;1999.90;999.90;;;27.20;99.90;;;;;;5069943;28;20107;-80
2023/05/22 11:39:25;;;;;;;1999.90;999.90;;;26.30;99.90;;;;;;5064985;28;20039;-74
2023/05/22 11:41:50;;;;;;;1999.90;999.90;;;25.70;99.90;;;;;;5069990;28;20028;-77
2023/05/22 11:44:16;;;;;;;1999.90;999.90;;;25.20;99.90;;;;;;5069572;28;20021;-79
2023/05/22 11:46:43;;;;;;;1999.90;999.90;;;24.80;99.90;;;;;;5064222;28;20484;-80
2023/05/22 11:49:12;;;;;;;1999.90;999.90;;;25.10;99.90;;;;;;5061989;28;20091;-80
2023/05/22 11:51:41;;;;;;;1999.90;999.90;;;25.40;99.90;;;;;;5062752;28;20036;-81
2023/05/22 11:54:06;;;;;;;1999.90;999.90;;;25.70;99.90;;;;;;5061803;28;20020;-74
2023/05/22 11:56:32;;;;;;;1999.90;999.90;;;26.10;99.90;;;;;;5066815;28;20098;-79
2023/05/22 11:58:58;;;;;;;1999.90;999.90;;;26.60;99.90;;;;;;5060473;28;20385;-79
2023/05/22 12:01:23;;;;;;;1999.90;999.90;;;26.60;99.90;;;;;;5058139;28;20021;-81